Time;durP1;ratioP1;P1;durP2;ratioP2;P2;SDS_P1;SDS_P2;PMS_P1;PMS_P2;Temp;Humidity;BMP_temperature;BMP_pressure;BME280_temperature;BME280_humidity;BME280_pressure;Samples;Min_cycle;Max_cycle;Signal;HPM_P1;HPM_P2
2023/01/01 00:01:13;;;;;;;18.90;10.52;;;14.00;99.90;;;;;;5062325;28;20028;-73
2023/01/01 00:03:39;;;;;;;22.15;13.30;;;14.00;99.90;;;;;;5039899;28;20053;-73
2023/01/01 00:06:12;;;;;;;20.77;11.05;;;13.90;99.90;;;;;;5034967;28;20577;-73
2023/01/01 00:08:39;;;;;;;17.88;11.45;;;13.90;99.90;;;;;;5048712;28;20588;-73
2023/01/01 00:11:06;;;;;;;28.50;15.15;;;13.90;99.90;;;;;;5040781;28;20037;-73
2023/01/01 00:13:32;;;;;;;20.67;15.45;;;13.80;99.90;;;;;;5046086;28;20036;-73
2023/01/01 00:16:12;;;;;;;16.80;11.75;;;13.80;99.90;;;;;;5053004;28;20033;-72
2023/01/01 00:18:39;;;;;;;25.88;17.00;;;13.80;99.90;;;;;;5043629;28;20060;-72
2023/01/01 00:21:13;;;;;;;19.23;13.55;;;13.60;99.90;;;;;;5047476;28;20104;-73
2023/01/01 00:23:39;;;;;;;25.63;17.27;;;13.60;99.90;;;;;;5037161;28;20116;-73
2023/01/01 00:26:13;;;;;;;21.83;15.85;;;13.60;99.90;;;;;;5032636;28;20172;-72
2023/01/01 00:28:38;;;;;;;31.20;22.58;;;13.50;99.90;;;;;;5029565;28;20508;-72
2023/01/01 00:31:11;;;;;;;27.55;14.68;;;13.40;99.90;;;;;;5033786;28;20041;-72
2023/01/01 00:33:36;;;;;;;22.17;13.48;;;13.50;99.90;;;;;;5039094;28;20060;-72
2023/01/01 00:36:07;;;;;;;23.63;12.02;;;13.40;99.90;;;;;;5033096;28;20076;-72
2023/01/01 00:38:34;;;;;;;19.13;13.25;;;13.50;99.90;;;;;;5046921;28;20119;-72
2023/01/01 00:41:00;;;;;;;17.67;10.38;;;13.50;99.90;;;;;;5034590;28;20393;-72
2023/01/01 00:43:25;;;;;;;18.92;11.85;;;13.40;99.90;;;;;;5051562;28;20037;-72
2023/01/01 00:45:53;;;;;;;24.42;12.10;;;13.50;99.90;;;;;;5047875;28;20592;-72
2023/01/01 00:48:20;;;;;;;25.70;15.18;;;13.50;99.90;;;;;;5049752;28;20037;-73
2023/01/01 00:50:47;;;;;;;20.08;12.77;;;13.60;99.90;;;;;;5051720;28;20037;-72
2023/01/01 00:53:12;;;;;;;24.30;14.93;;;13.50;99.90;;;;;;5052607;28;20047;-72
2023/01/01 00:55:39;;;;;;;21.55;14.05;;;13.50;99.90;;;;;;5052935;28;20394;-72
2023/01/01 00:58:05;;;;;;;25.23;14.50;;;13.50;99.90;;;;;;5035256;28;20068;-72
2023/01/01 01:00:30;;;;;;;23.85;14.43;;;13.60;99.90;;;;;;5036120;28;20072;-72
2023/01/01 01:02:56;;;;;;;17.27;10.18;;;13.60;99.90;;;;;;5050992;28;20052;-73
2023/01/01 01:05:21;;;;;;;25.77;17.73;;;13.60;99.90;;;;;;5036111;28;20044;-72
2023/01/01 01:07:47;;;;;;;19.35;12.45;;;13.60;99.90;;;;;;5040834;28;20083;-73
2023/01/01 01:10:13;;;;;;;30.73;21.95;;;13.70;99.90;;;;;;5035755;28;20064;-72
2023/01/01 01:12:39;;;;;;;29.65;18.70;;;13.70;99.90;;;;;;5051389;28;20068;-72
2023/01/01 01:15:06;;;;;;;23.95;18.85;;;13.80;99.90;;;;;;5052534;28;20076;-72
2023/01/01 01:17:32;;;;;;;22.90;13.98;;;13.80;99.90;;;;;;5051473;28;20041;-72
2023/01/01 01:19:58;;;;;;;24.42;15.60;;;13.80;99.90;;;;;;5035934;28;20497;-73
2023/01/01 01:22:24;;;;;;;23.63;16.55;;;13.80;99.90;;;;;;5050100;28;20037;-73
2023/01/01 01:24:50;;;;;;;26.38;19.55;;;13.80;99.90;;;;;;5052164;28;20041;-72
2023/01/01 01:27:16;;;;;;;29.83;20.30;;;13.80;99.90;;;;;;5034968;28;20098;-73
2023/01/01 01:29:41;;;;;;;28.48;17.65;;;13.80;99.90;;;;;;5052341;28;20049;-73
2023/01/01 01:32:07;;;;;;;29.42;19.95;;;13.80;99.90;;;;;;5034758;28;20051;-73
2023/01/01 01:34:32;;;;;;;23.75;14.23;;;13.80;99.90;;;;;;5035694;28;20068;-73
2023/01/01 01:36:58;;;;;;;19.13;12.25;;;13.70;99.90;;;;;;5049843;28;20500;-73
2023/01/01 01:39:24;;;;;;;36.00;21.63;;;13.70;99.90;;;;;;5052240;28;20037;-72
2023/01/01 01:41:49;;;;;;;30.67;22.45;;;13.70;99.90;;;;;;5051172;28;20041;-72
2023/01/01 01:44:46;;;;;;;28.27;15.73;;;13.60;99.90;;;;;;5032282;28;20504;-73
2023/01/01 01:47:39;;;;;;;35.35;23.05;;;13.60;99.90;;;;;;5039218;28;20036;-72
2023/01/01 01:50:21;;;;;;;29.98;18.98;;;13.60;99.90;;;;;;5050615;28;20041;-72
2023/01/01 01:53:05;;;;;;;28.63;19.73;;;13.60;99.90;;;;;;5048428;28;20049;-72
2023/01/01 01:55:35;;;;;;;27.85;19.27;;;13.60;99.90;;;;;;5040768;28;20042;-72
2023/01/01 01:58:02;;;;;;;33.95;21.45;;;13.50;99.90;;;;;;5050984;28;20032;-73
2023/01/01 02:00:28;;;;;;;26.23;17.77;;;13.50;99.90;;;;;;5034481;28;20037;-73
2023/01/01 02:03:01;;;;;;;27.48;19.42;;;13.50;99.90;;;;;;5051648;28;20098;-72
2023/01/01 02:05:28;;;;;;;27.63;18.20;;;13.50;99.90;;;;;;5051676;28;20049;-72
2023/01/01 02:07:55;;;;;;;26.55;17.70;;;13.50;99.90;;;;;;5030558;28;20405;-72
2023/01/01 02:10:20;;;;;;;28.30;20.38;;;13.50;99.90;;;;;;5051553;28;20557;-72
2023/01/01 02:12:46;;;;;;;24.35;15.25;;;13.50;99.90;;;;;;5034907;28;20041;-72
2023/01/01 02:15:12;;;;;;;25.45;16.38;;;13.60;99.90;;;;;;5035040;28;20052;-73
2023/01/01 02:17:49;;;;;;;25.23;17.45;;;13.60;99.90;;;;;;5051159;28;20180;-73
2023/01/01 02:20:31;;;;;;;21.08;13.90;;;13.50;99.90;;;;;;5051564;28;20059;-73
2023/01/01 02:23:19;;;;;;;19.45;13.18;;;13.60;99.90;;;;;;5050988;28;20052;-72
2023/01/01 02:25:54;;;;;;;20.30;12.70;;;13.60;99.90;;;;;;5048932;28;20049;-72
2023/01/01 02:28:43;;;;;;;20.50;12.45;;;13.60;99.90;;;;;;5032674;28;20037;-73
2023/01/01 02:31:13;;;;;;;26.73;16.83;;;13.60;99.90;;;;;;5050685;28;20196;-73
2023/01/01 02:33:40;;;;;;;18.80;11.75;;;13.60;99.90;;;;;;5034744;28;20044;-72
2023/01/01 02:36:07;;;;;;;16.30;10.82;;;13.60;99.90;;;;;;5050338;28;20037;-72
2023/01/01 02:38:42;;;;;;;14.20;8.35;;;13.60;99.90;;;;;;5049284;28;20086;-72
2023/01/01 02:41:12;;;;;;;16.70;10.77;;;13.70;99.90;;;;;;5068240;28;20041;-72
2023/01/01 02:43:39;;;;;;;19.58;9.07;;;13.60;99.90;;;;;;5033960;28;20048;-72
2023/01/01 02:46:10;;;;;;;22.75;10.52;;;13.70;99.90;;;;;;5034796;28;20082;-73
2023/01/01 02:48:48;;;;;;;19.33;12.07;;;13.70;99.90;;;;;;5050560;28;20095;-72
2023/01/01 02:51:24;;;;;;;22.35;11.23;;;13.60;99.90;;;;;;5051273;28;20067;-72
2023/01/01 02:54:03;;;;;;;23.65;12.45;;;13.60;99.90;;;;;;5034137;28;20037;-72
2023/01/01 02:56:52;;;;;;;16.65;8.48;;;13.60;99.90;;;;;;5034535;28;20094;-73
2023/01/01 03:02:45;;;;;;;18.88;8.18;;;13.70;99.90;;;;;;5035244;28;20049;-72
2023/01/01 03:06:21;;;;;;;14.55;7.55;;;13.80;99.90;;;;;;5043316;28;20057;-72
2023/01/01 03:08:36;;;;;;;13.07;5.82;;;13.80;99.90;;;;;;5040718;28;20079;-72
2023/01/01 03:11:07;;;;;;;16.35;7.70;;;13.70;99.90;;;;;;5035678;28;20147;-73
2023/01/01 03:14:05;;;;;;;15.57;7.38;;;13.80;99.90;;;;;;5053552;28;20052;-73
2023/01/01 03:16:56;;;;;;;14.43;5.03;;;13.80;99.90;;;;;;5054836;28;20045;-73
2023/01/01 03:19:25;;;;;;;17.25;7.20;;;13.80;99.90;;;;;;5038191;28;20393;-73
2023/01/01 03:22:05;;;;;;;14.68;5.88;;;13.80;99.90;;;;;;5036645;28;20409;-72
2023/01/01 03:24:51;;;;;;;14.30;5.68;;;13.80;99.90;;;;;;5038781;28;20094;-72
2023/01/01 03:27:24;;;;;;;12.68;4.57;;;13.80;99.90;;;;;;5034409;28;20049;-73
2023/01/01 03:29:52;;;;;;;13.52;4.97;;;13.90;99.90;;;;;;5051527;28;20056;-73
2023/01/01 03:32:58;;;;;;;10.32;4.47;;;13.90;99.90;;;;;;5070743;28;20125;-73
2023/01/01 03:35:12;;;;;;;11.95;4.18;;;13.90;99.90;;;;;;5049848;28;20079;-73
2023/01/01 03:37:39;;;;;;;12.38;3.95;;;13.90;99.90;;;;;;5035792;28;20064;-73
2023/01/01 03:40:07;;;;;;;13.60;4.90;;;13.80;99.90;;;;;;5054145;28;20044;-73
2023/01/01 03:42:42;;;;;;;12.10;4.00;;;13.80;99.90;;;;;;5052833;28;20091;-73
2023/01/01 03:45:16;;;;;;;7.72;3.35;;;13.70;99.90;;;;;;5053024;28;20041;-72
2023/01/01 03:47:42;;;;;;;10.85;3.38;;;13.70;99.90;;;;;;5053974;28;20120;-73
2023/01/01 03:50:08;;;;;;;10.63;4.05;;;13.70;99.90;;;;;;5053179;28;20130;-73
2023/01/01 03:52:53;;;;;;;9.55;3.60;;;13.60;99.90;;;;;;5064695;28;20525;-73
2023/01/01 03:55:30;;;;;;;7.13;2.92;;;13.50;99.90;;;;;;5037268;28;20036;-73
2023/01/01 03:58:29;;;;;;;12.82;4.10;;;13.60;99.90;;;;;;5052710;28;20493;-73
2023/01/01 04:01:03;;;;;;;12.52;4.18;;;13.50;99.90;;;;;;5069644;28;20041;-73
2023/01/01 04:03:31;;;;;;;11.30;4.20;;;13.50;99.90;;;;;;5053391;28;20520;-73
2023/01/01 04:05:56;;;;;;;11.13;4.22;;;13.40;99.90;;;;;;5035607;28;20225;-73
2023/01/01 04:08:22;;;;;;;12.43;4.25;;;13.30;99.90;;;;;;5051858;28;20036;-73
2023/01/01 04:10:54;;;;;;;13.68;4.90;;;13.30;99.90;;;;;;5035891;28;20097;-73
2023/01/01 04:13:19;;;;;;;12.63;4.57;;;13.30;99.90;;;;;;5034671;28;20497;-74
2023/01/01 04:15:45;;;;;;;14.15;4.72;;;13.20;99.90;;;;;;5036847;28;20090;-74
2023/01/01 04:18:10;;;;;;;14.35;3.90;;;13.20;99.90;;;;;;5033109;28;20037;-71
2023/01/01 04:20:36;;;;;;;14.43;4.82;;;13.10;99.90;;;;;;5033629;28;20049;-71
2023/01/01 04:23:02;;;;;;;14.02;4.72;;;13.10;99.90;;;;;;5059467;28;20048;-71
2023/01/01 04:25:28;;;;;;;13.52;5.13;;;13.00;99.90;;;;;;5052155;28;20045;-71
2023/01/01 04:27:54;;;;;;;10.30;3.28;;;12.90;99.90;;;;;;5053175;28;20413;-71
2023/01/01 04:30:21;;;;;;;15.40;5.13;;;13.00;99.90;;;;;;5033593;28;20042;-71
2023/01/01 04:32:47;;;;;;;14.05;5.22;;;13.00;99.90;;;;;;5048373;28;20059;-71
2023/01/01 04:35:14;;;;;;;9.93;4.15;;;12.80;99.90;;;;;;5066709;28;20119;-71
2023/01/01 04:37:41;;;;;;;12.85;5.35;;;12.80;99.90;;;;;;5049090;28;20037;-71
2023/01/01 04:40:07;;;;;;;12.00;4.55;;;12.70;99.90;;;;;;5035866;28;20036;-71
2023/01/01 04:42:33;;;;;;;12.07;4.63;;;12.70;99.90;;;;;;5033262;28;20044;-71
2023/01/01 04:44:59;;;;;;;10.02;2.92;;;12.70;99.90;;;;;;5037280;28;20398;-71
2023/01/01 04:47:28;;;;;;;15.15;3.40;;;13.00;99.90;;;;;;5047182;28;20115;-71
2023/01/01 04:49:54;;;;;;;9.88;3.25;;;13.10;99.90;;;;;;5035393;28;20044;-70
2023/01/01 04:52:20;;;;;;;8.90;2.20;;;13.00;99.90;;;;;;5051148;28;20040;-70
2023/01/01 04:54:45;;;;;;;8.73;2.10;;;13.10;99.90;;;;;;5039151;28;20176;-71
2023/01/01 04:57:11;;;;;;;11.82;3.03;;;13.20;99.90;;;;;;5044779;28;20558;-71
2023/01/01 04:59:37;;;;;;;10.18;3.55;;;13.00;99.90;;;;;;5032803;28;20083;-71
2023/01/01 05:02:03;;;;;;;10.43;2.75;;;13.10;99.90;;;;;;5024692;28;20076;-71
2023/01/01 05:04:28;;;;;;;8.07;2.13;;;13.10;99.90;;;;;;5058232;28;20033;-70
2023/01/01 05:06:54;;;;;;;7.93;2.15;;;13.30;99.90;;;;;;5033827;28;20041;-70
2023/01/01 05:09:20;;;;;;;6.43;2.15;;;13.30;99.90;;;;;;5035784;28;20060;-71
2023/01/01 05:11:46;;;;;;;8.93;2.08;;;13.30;99.90;;;;;;5049891;28;20057;-71
2023/01/01 05:14:11;;;;;;;6.80;2.03;;;13.30;99.90;;;;;;5052271;28;20498;-71
2023/01/01 05:16:38;;;;;;;12.23;3.05;;;13.30;99.90;;;;;;5061937;28;20047;-71
2023/01/01 05:19:05;;;;;;;9.02;2.97;;;13.40;99.90;;;;;;5032469;28;20040;-71
2023/01/01 05:21:33;;;;;;;10.57;2.47;;;13.30;99.90;;;;;;5032256;28;20416;-71
2023/01/01 05:24:02;;;;;;;5.97;2.28;;;13.30;99.90;;;;;;5051759;28;20116;-70
2023/01/01 05:26:32;;;;;;;9.00;1.63;;;13.40;99.90;;;;;;5051159;28;20040;-71
2023/01/01 05:28:58;;;;;;;11.02;2.33;;;13.30;99.90;;;;;;5035570;28;20052;-71
2023/01/01 05:31:28;;;;;;;8.73;2.50;;;13.20;99.90;;;;;;5034215;28;20033;-71
2023/01/01 05:33:54;;;;;;;5.43;1.45;;;13.30;99.90;;;;;;5066647;28;20561;-71
2023/01/01 05:36:23;;;;;;;3.85;1.55;;;13.20;99.90;;;;;;5041343;28;20071;-71
2023/01/01 05:38:49;;;;;;;6.75;1.48;;;13.30;99.90;;;;;;5035183;28;20037;-71
2023/01/01 05:41:17;;;;;;;3.33;1.23;;;13.30;99.90;;;;;;5049986;28;20036;-70
2023/01/01 05:43:43;;;;;;;8.25;1.80;;;13.30;99.90;;;;;;5068849;28;20036;-71
2023/01/01 05:46:17;;;;;;;7.60;1.65;;;13.40;99.90;;;;;;5051469;28;20065;-71
2023/01/01 05:48:43;;;;;;;6.53;2.28;;;13.30;99.90;;;;;;5032057;28;20033;-70
2023/01/01 05:51:17;;;;;;;5.55;1.40;;;13.30;99.90;;;;;;5047011;28;20090;-70
2023/01/01 05:53:43;;;;;;;6.90;1.70;;;13.40;99.90;;;;;;5052054;28;20064;-71
2023/01/01 05:56:11;;;;;;;7.75;1.80;;;13.30;99.90;;;;;;5050887;28;20033;-71
2023/01/01 05:58:37;;;;;;;8.25;1.95;;;13.20;99.90;;;;;;5068566;28;20041;-71
2023/01/01 06:01:17;;;;;;;11.02;2.33;;;13.10;99.90;;;;;;5060988;28;20033;-71
2023/01/01 06:03:44;;;;;;;8.45;2.00;;;13.00;99.90;;;;;;5050157;28;20607;-70
2023/01/01 06:06:12;;;;;;;10.02;1.90;;;13.10;99.90;;;;;;5016535;28;20059;-71
2023/01/01 06:08:38;;;;;;;7.38;1.88;;;13.20;99.90;;;;;;5057100;28;20041;-71
2023/01/01 06:11:06;;;;;;;5.72;1.40;;;13.10;99.90;;;;;;5049853;28;20390;-71
2023/01/01 06:13:32;;;;;;;3.65;1.27;;;13.20;99.90;;;;;;5034084;28;20048;-71
2023/01/01 06:16:00;;;;;;;6.45;2.03;;;13.20;99.90;;;;;;5031853;28;20461;-71
2023/01/01 06:18:28;;;;;;;6.78;2.08;;;13.20;99.90;;;;;;5034135;28;20143;-71
2023/01/01 06:20:53;;;;;;;9.88;1.98;;;13.20;99.90;;;;;;5050812;28;20037;-71
2023/01/01 06:23:19;;;;;;;6.82;1.40;;;13.10;99.90;;;;;;5033169;28;20451;-71
2023/01/01 06:25:45;;;;;;;4.13;1.20;;;13.20;99.90;;;;;;5033422;28;20039;-71
2023/01/01 06:28:10;;;;;;;6.70;1.35;;;13.00;99.90;;;;;;5050734;28;20037;-71
2023/01/01 06:30:36;;;;;;;6.05;1.33;;;13.00;99.90;;;;;;5048279;28;20045;-71
2023/01/01 06:33:03;;;;;;;5.78;1.42;;;12.90;99.90;;;;;;5034742;28;20037;-71
2023/01/01 06:35:29;;;;;;;2.15;0.75;;;12.90;99.90;;;;;;5033552;28;20043;-71
2023/01/01 06:37:54;;;;;;;4.28;1.10;;;13.00;99.90;;;;;;5027868;28;20038;-71
2023/01/01 06:40:20;;;;;;;2.60;0.70;;;12.80;99.90;;;;;;5048274;28;20037;-71
2023/01/01 06:42:45;;;;;;;4.93;1.00;;;12.80;99.90;;;;;;5036098;28;20091;-71
2023/01/01 06:45:12;;;;;;;3.17;0.77;;;12.90;99.90;;;;;;5052809;28;20044;-71
2023/01/01 06:47:37;;;;;;;4.28;0.95;;;12.90;99.90;;;;;;5037321;28;20080;-71
2023/01/01 06:50:03;;;;;;;6.25;1.13;;;12.80;99.90;;;;;;5036946;28;20083;-70
2023/01/01 06:52:29;;;;;;;4.90;1.27;;;12.70;99.90;;;;;;5053078;28;20037;-71
2023/01/01 06:54:55;;;;;;;4.88;1.05;;;12.70;99.90;;;;;;5065231;28;20037;-72
2023/01/01 06:57:20;;;;;;;6.25;1.10;;;12.70;99.90;;;;;;5052356;28;20037;-71
2023/01/01 06:59:46;;;;;;;8.48;1.60;;;12.60;99.90;;;;;;5034779;28;20030;-71
2023/01/01 07:02:11;;;;;;;5.97;1.27;;;12.70;99.90;;;;;;5020948;28;20452;-71
2023/01/01 07:04:40;;;;;;;5.70;1.13;;;12.70;99.90;;;;;;5046709;28;20127;-71
2023/01/01 07:07:06;;;;;;;4.03;1.00;;;12.60;99.90;;;;;;5054677;28;20501;-71
2023/01/01 07:09:31;;;;;;;4.43;1.00;;;12.60;99.90;;;;;;5036568;28;20062;-71
2023/01/01 07:11:57;;;;;;;7.75;1.30;;;12.60;99.90;;;;;;5037512;28;20405;-72
2023/01/01 07:14:23;;;;;;;4.40;1.02;;;12.60;99.90;;;;;;5036356;28;20033;-71
2023/01/01 07:16:48;;;;;;;9.30;1.92;;;12.70;99.90;;;;;;5050883;28;20041;-71
2023/01/01 07:19:14;;;;;;;8.60;1.10;;;12.70;99.90;;;;;;5044917;28;20127;-72
2023/01/01 07:21:51;;;;;;;10.18;1.70;;;12.60;99.90;;;;;;5046454;28;20044;-71
2023/01/01 07:24:17;;;;;;;3.92;0.88;;;12.60;99.90;;;;;;5042234;28;20504;-71
2023/01/01 07:26:44;;;;;;;5.53;1.25;;;12.70;99.90;;;;;;5052514;28;20039;-71
2023/01/01 07:29:11;;;;;;;8.15;1.48;;;12.70;99.90;;;;;;5036903;28;20028;-71
2023/01/01 07:31:39;;;;;;;12.55;1.92;;;12.60;99.90;;;;;;5036796;28;20051;-71
2023/01/01 07:34:06;;;;;;;6.07;1.60;;;12.60;99.90;;;;;;5037135;28;20129;-72
2023/01/01 07:36:32;;;;;;;5.13;1.25;;;12.60;99.90;;;;;;5033391;28;20552;-71
2023/01/01 07:38:58;;;;;;;3.88;1.35;;;12.50;99.90;;;;;;5035988;28;20040;-71
2023/01/01 07:41:23;;;;;;;6.55;1.50;;;12.60;99.90;;;;;;5052829;28;20471;-71
2023/01/01 07:43:49;;;;;;;10.80;1.70;;;12.40;99.90;;;;;;5052128;28;20185;-72
2023/01/01 07:46:15;;;;;;;6.25;1.15;;;12.40;99.90;;;;;;5034966;28;20033;-74
2023/01/01 07:48:41;;;;;;;7.53;1.15;;;12.50;99.90;;;;;;5053219;28;20072;-74
2023/01/01 07:51:07;;;;;;;10.15;1.90;;;12.50;99.90;;;;;;5035349;28;20041;-71
2023/01/01 07:53:33;;;;;;;8.48;1.98;;;12.40;99.90;;;;;;5060454;28;20067;-71
2023/01/01 07:55:58;;;;;;;13.30;1.75;;;12.40;99.90;;;;;;5035790;28;20124;-72
2023/01/01 07:58:24;;;;;;;7.00;1.92;;;12.40;99.90;;;;;;5055838;28;20037;-73
2023/01/01 08:00:50;;;;;;;10.98;1.80;;;12.30;99.90;;;;;;5052743;28;20029;-72
2023/01/01 08:03:15;;;;;;;11.60;1.83;;;12.30;99.90;;;;;;5052198;28;20064;-72
2023/01/01 08:05:41;;;;;;;5.82;1.02;;;12.40;99.90;;;;;;5023756;28;20045;-72
2023/01/01 08:08:08;;;;;;;8.95;1.75;;;12.40;99.90;;;;;;5052130;28;20045;-72
2023/01/01 08:10:33;;;;;;;7.85;1.60;;;12.40;99.90;;;;;;5035206;28;20466;-73
2023/01/01 08:13:00;;;;;;;10.38;1.75;;;12.40;99.90;;;;;;5031523;28;20048;-72
2023/01/01 08:15:26;;;;;;;8.93;2.08;;;12.40;99.90;;;;;;5037059;28;20033;-72
2023/01/01 08:18:00;;;;;;;9.68;1.77;;;12.40;99.90;;;;;;5051692;28;20037;-73
2023/01/01 08:20:26;;;;;;;11.52;2.45;;;12.30;99.90;;;;;;5033062;28;20041;-73
2023/01/01 08:22:52;;;;;;;8.75;1.80;;;12.30;99.90;;;;;;5030215;28;20041;-73
2023/01/01 08:25:18;;;;;;;8.48;1.95;;;12.40;99.90;;;;;;5050464;28;20074;-74
2023/01/01 08:27:44;;;;;;;7.32;1.50;;;12.40;99.90;;;;;;5049449;28;20128;-73
2023/01/01 08:30:11;;;;;;;10.45;1.75;;;12.30;99.90;;;;;;5043398;28;20041;-73
2023/01/01 08:32:37;;;;;;;8.60;2.00;;;12.30;99.90;;;;;;5050589;28;20045;-73
2023/01/01 08:35:03;;;;;;;10.48;1.67;;;12.20;99.90;;;;;;5051610;28;20500;-74
2023/01/01 08:37:28;;;;;;;13.00;2.58;;;12.20;99.90;;;;;;5051822;28;20033;-73
2023/01/01 08:39:54;;;;;;;14.43;2.35;;;12.20;99.90;;;;;;5050735;28;20451;-73
2023/01/01 08:42:19;;;;;;;9.30;2.05;;;12.30;99.90;;;;;;5033989;28;20121;-73
2023/01/01 08:44:45;;;;;;;7.20;1.58;;;12.20;99.90;;;;;;5052550;28;20045;-73
2023/01/01 08:47:29;;;;;;;8.88;1.92;;;12.30;99.90;;;;;;5048375;28;20417;-73
2023/01/01 08:49:55;;;;;;;14.18;2.78;;;12.20;99.90;;;;;;5034483;28;20564;-73
2023/01/01 08:52:21;;;;;;;11.77;1.98;;;12.20;99.90;;;;;;5050737;28;20154;-73
2023/01/01 08:54:46;;;;;;;11.85;1.85;;;12.20;99.90;;;;;;5047104;28;20029;-73
2023/01/01 08:57:12;;;;;;;7.15;1.33;;;12.20;99.90;;;;;;5045671;28;20115;-74
2023/01/01 08:59:37;;;;;;;11.93;1.98;;;12.20;99.90;;;;;;5051109;28;20032;-73
2023/01/01 09:02:04;;;;;;;15.10;2.22;;;12.20;99.90;;;;;;5033290;28;20529;-72
2023/01/01 09:04:29;;;;;;;13.55;2.22;;;12.30;99.90;;;;;;5068125;28;20087;-73
2023/01/01 09:06:55;;;;;;;11.38;1.88;;;12.20;99.90;;;;;;5048997;28;20040;-73
2023/01/01 09:09:20;;;;;;;12.85;2.38;;;12.20;99.90;;;;;;5067222;28;20072;-73
2023/01/01 09:11:52;;;;;;;6.88;1.60;;;12.20;99.90;;;;;;5034645;28;20496;-73
2023/01/01 09:14:17;;;;;;;10.07;1.80;;;12.30;99.90;;;;;;5057745;28;20068;-73
2023/01/01 09:16:43;;;;;;;9.55;1.48;;;12.10;99.90;;;;;;5032544;28;20072;-73
2023/01/01 09:19:09;;;;;;;14.48;2.60;;;12.20;99.90;;;;;;5041917;28;20040;-71
2023/01/01 09:21:34;;;;;;;6.70;1.17;;;12.20;99.90;;;;;;5032197;28;20044;-71
2023/01/01 09:24:00;;;;;;;10.88;2.38;;;12.10;99.90;;;;;;5040058;28;20578;-71
2023/01/01 09:26:26;;;;;;;8.07;1.90;;;12.20;99.90;;;;;;5021408;28;20428;-71
2023/01/01 09:28:51;;;;;;;10.75;1.95;;;12.30;99.90;;;;;;5041740;28;20029;-74
2023/01/01 09:31:17;;;;;;;10.38;1.65;;;12.30;99.90;;;;;;5036438;28;20062;-74
2023/01/01 09:33:42;;;;;;;11.68;2.35;;;12.20;99.90;;;;;;5044285;28;20041;-74
2023/01/01 09:36:26;;;;;;;10.63;1.92;;;12.30;99.90;;;;;;5049698;28;20523;-74
2023/01/01 09:38:53;;;;;;;8.35;1.45;;;12.30;99.90;;;;;;5034229;28;20477;-74
2023/01/01 09:41:41;;;;;;;14.02;1.92;;;12.20;99.90;;;;;;5034686;28;20044;-73
2023/01/01 09:44:25;;;;;;;7.10;1.23;;;12.30;99.90;;;;;;5033161;28;20040;-73
2023/01/01 09:46:52;;;;;;;11.18;1.80;;;12.30;99.90;;;;;;5066549;28;20063;-73
2023/01/01 09:49:30;;;;;;;11.57;1.80;;;12.30;99.90;;;;;;5051512;28;20029;-74
2023/01/01 09:52:00;;;;;;;8.95;1.60;;;12.10;99.90;;;;;;5034459;28;20044;-74
2023/01/01 09:54:56;;;;;;;8.73;1.63;;;12.10;99.90;;;;;;5044028;28;20044;-74
2023/01/01 09:57:29;;;;;;;12.35;1.63;;;12.20;99.90;;;;;;5053235;28;20056;-74
2023/01/01 09:59:57;;;;;;;6.65;1.38;;;12.10;99.90;;;;;;5050344;28;20558;-74
2023/01/01 10:02:42;;;;;;;9.38;1.52;;;12.20;99.90;;;;;;5038527;28;20058;-74
2023/01/01 10:05:36;;;;;;;10.57;1.38;;;12.30;99.90;;;;;;5028501;28;20049;-74
2023/01/01 10:08:14;;;;;;;10.20;2.00;;;12.30;99.90;;;;;;5033883;28;20123;-73
2023/01/01 10:10:51;;;;;;;8.55;1.30;;;12.30;99.90;;;;;;5048232;28;20045;-73
2023/01/01 10:13:41;;;;;;;10.88;1.40;;;12.30;99.90;;;;;;5052083;28;20088;-74
2023/01/01 10:16:11;;;;;;;7.07;1.88;;;12.30;99.90;;;;;;5042985;28;20047;-74
2023/01/01 10:18:38;;;;;;;11.77;1.92;;;12.30;99.90;;;;;;5036189;28;20274;-74
2023/01/01 10:21:13;;;;;;;8.38;1.85;;;12.20;99.90;;;;;;5053418;28;20203;-74
2023/01/01 10:23:43;;;;;;;11.45;2.28;;;12.10;99.90;;;;;;5037653;28;20048;-74
2023/01/01 10:26:15;;;;;;;11.63;1.70;;;12.10;99.90;;;;;;5037934;28;20041;-73
2023/01/01 10:28:48;;;;;;;10.00;1.48;;;12.20;99.90;;;;;;5030664;28;20041;-74
2023/01/01 10:31:24;;;;;;;14.52;2.35;;;12.20;99.90;;;;;;5038687;28;20055;-74
2023/01/01 10:33:50;;;;;;;10.60;1.70;;;12.20;99.90;;;;;;5044969;28;20048;-73
2023/01/01 10:36:18;;;;;;;8.75;1.83;;;12.20;99.90;;;;;;5037705;28;20491;-73
2023/01/01 10:38:44;;;;;;;12.48;2.03;;;12.10;99.90;;;;;;5049885;28;20037;-74
2023/01/01 10:41:11;;;;;;;10.23;1.70;;;12.20;99.90;;;;;;5054949;28;20457;-74
2023/01/01 10:43:37;;;;;;;7.60;1.30;;;12.20;99.90;;;;;;5054316;28;20068;-74
2023/01/01 10:46:04;;;;;;;8.85;1.50;;;12.20;99.90;;;;;;5030780;28;20507;-74
2023/01/01 10:48:31;;;;;;;13.88;1.90;;;12.30;99.90;;;;;;5048253;28;20071;-74
2023/01/01 10:51:14;;;;;;;10.88;1.40;;;12.20;99.90;;;;;;5039295;28;20045;-74
2023/01/01 10:53:42;;;;;;;9.75;1.45;;;12.20;99.90;;;;;;5049096;28;20099;-74
2023/01/01 10:56:17;;;;;;;6.75;1.42;;;12.20;99.90;;;;;;5037808;28;20383;-74
2023/01/01 10:58:55;;;;;;;8.30;1.27;;;12.20;99.90;;;;;;5036927;28;20433;-73
2023/01/01 11:01:22;;;;;;;11.65;1.52;;;12.10;99.90;;;;;;5050894;28;22176;-73
2023/01/01 11:04:06;;;;;;;8.77;1.60;;;12.10;99.90;;;;;;5050575;28;20107;-73
2023/01/01 11:06:34;;;;;;;11.65;2.00;;;12.20;99.90;;;;;;5035158;28;20118;-74
2023/01/01 11:09:04;;;;;;;11.52;1.52;;;12.10;99.90;;;;;;5046217;28;20390;-73
2023/01/01 11:11:43;;;;;;;9.90;1.48;;;12.10;99.90;;;;;;5035815;28;20052;-73
2023/01/01 11:14:34;;;;;;;10.52;1.33;;;12.10;99.90;;;;;;5045351;28;20048;-73
2023/01/01 11:17:00;;;;;;;4.60;0.90;;;12.10;99.90;;;;;;5016717;28;20511;-73
2023/01/01 11:19:37;;;;;;;10.02;1.60;;;12.00;99.90;;;;;;5053421;28;20072;-73
2023/01/01 11:22:04;;;;;;;8.20;1.20;;;12.10;99.90;;;;;;5016187;28;20049;-73
2023/01/01 11:24:32;;;;;;;10.52;1.90;;;12.20;99.90;;;;;;5045096;28;20072;-73
2023/01/01 11:27:36;;;;;;;13.48;1.80;;;12.10;99.90;;;;;;5052662;28;20052;-73
2023/01/01 11:30:21;;;;;;;9.98;1.77;;;12.10;99.90;;;;;;4985514;28;20034;-74
2023/01/01 11:32:48;;;;;;;6.70;1.48;;;12.20;99.90;;;;;;4990917;28;20093;-73
2023/01/01 11:35:22;;;;;;;12.45;1.80;;;12.10;99.90;;;;;;5023971;28;20536;-74
2023/01/01 11:37:48;;;;;;;10.00;1.45;;;12.10;99.90;;;;;;5033398;28;20072;-73
2023/01/01 11:40:21;;;;;;;9.70;1.88;;;12.20;99.90;;;;;;5032545;28;20093;-74
2023/01/01 11:42:58;;;;;;;8.10;1.33;;;12.10;99.90;;;;;;5033830;28;20106;-73
2023/01/01 11:45:27;;;;;;;7.55;1.67;;;12.20;99.90;;;;;;5033023;28;20037;-73
2023/01/01 11:47:59;;;;;;;6.05;1.10;;;12.20;99.90;;;;;;5035126;28;20044;-73
2023/01/01 11:50:48;;;;;;;9.18;1.40;;;12.30;99.90;;;;;;5047670;28;20037;-73
2023/01/01 11:53:21;;;;;;;13.75;1.65;;;12.40;99.90;;;;;;5050507;28;20048;-74
2023/01/01 11:56:12;;;;;;;12.05;1.80;;;12.20;99.90;;;;;;5034868;28;20085;-73
2023/01/01 11:58:42;;;;;;;8.52;1.80;;;12.20;99.90;;;;;;5051528;28;20051;-74
2023/01/01 12:01:18;;;;;;;8.50;1.67;;;12.30;99.90;;;;;;5054517;28;20505;-73
2023/01/01 12:03:55;;;;;;;13.73;2.42;;;12.40;99.90;;;;;;4996511;28;1121527;-72
2023/01/01 12:06:39;;;;;;;9.70;1.77;;;12.30;99.90;;;;;;5040193;28;20056;-74
2023/01/01 12:09:16;;;;;;;13.48;2.20;;;12.30;99.90;;;;;;5022175;28;20041;-74
2023/01/01 12:12:09;;;;;;;7.43;2.65;;;12.40;99.90;;;;;;5028553;28;20046;-73
2023/01/01 12:14:45;;;;;;;5.47;1.63;;;12.60;99.90;;;;;;5047791;28;20040;-73
2023/01/01 12:17:32;;;;;;;8.23;1.83;;;12.70;99.90;;;;;;5035635;28;20033;-74
2023/01/01 12:20:12;;;;;;;6.30;1.23;;;12.70;99.90;;;;;;5048188;28;20032;-74
2023/01/01 12:22:39;;;;;;;15.27;2.22;;;12.60;99.90;;;;;;5068775;28;20045;-73
2023/01/01 12:25:05;;;;;;;12.75;1.98;;;12.50;99.90;;;;;;5053423;28;20079;-74
2023/01/01 12:28:02;;;;;;;9.05;2.45;;;12.50;99.90;;;;;;5050645;28;20044;-73
2023/01/01 12:30:50;;;;;;;10.05;1.88;;;12.50;99.90;;;;;;5035246;28;20084;-74
2023/01/01 12:34:00;;;;;;;9.05;1.50;;;12.50;99.90;;;;;;5049006;28;20128;-73
2023/01/01 12:36:44;;;;;;;11.70;2.03;;;12.40;99.90;;;;;;5016272;28;20100;-74
2023/01/01 12:39:35;;;;;;;11.45;1.95;;;12.40;99.90;;;;;;5063662;28;20047;-73
2023/01/01 12:42:16;;;;;;;8.63;1.65;;;12.50;99.90;;;;;;5066368;28;20044;-73
2023/01/01 12:45:06;;;;;;;7.43;1.45;;;12.50;99.90;;;;;;5052833;28;20047;-73
2023/01/01 12:47:53;;;;;;;12.18;2.05;;;12.60;99.90;;;;;;5035290;28;20033;-71
2023/01/01 12:50:58;;;;;;;8.27;2.05;;;12.60;99.90;;;;;;5052074;28;20051;-71
2023/01/01 12:53:39;;;;;;;9.93;2.63;;;12.60;99.90;;;;;;5050089;28;20554;-71
2023/01/01 12:56:12;;;;;;;7.63;1.25;;;12.60;99.90;;;;;;5053030;28;20424;-72
2023/01/01 12:58:43;;;;;;;10.05;2.13;;;12.60;99.90;;;;;;5048145;28;20144;-71
2023/01/01 13:01:23;;;;;;;8.43;1.40;;;12.50;99.90;;;;;;5027495;28;20034;-72